Time;durP1;ratioP1;P1;durP2;ratioP2;P2;SDS_P1;SDS_P2;PMS_P1;PMS_P2;Temp;Humidity;BMP_temperature;BMP_pressure;BME280_temperature;BME280_humidity;BME280_pressure;Samples;Min_cycle;Max_cycle;Signal;HPM_P1;HPM_P2
2022/07/21 00:01:33;;;;;;;1.70;0.80;;;;;;;16.72;96.89;98253.22;5089974;28;20435;-43
2022/07/21 00:03:58;;;;;;;2.28;0.50;;;;;;;16.58;97.12;98229.88;5090523;28;20035;-44
2022/07/21 00:06:24;;;;;;;0.90;0.60;;;;;;;16.57;97.22;98228.22;5091146;28;20101;-43
2022/07/21 00:08:50;;;;;;;2.65;0.60;;;;;;;16.74;97.28;98257.41;5090970;28;20474;-44
2022/07/21 00:11:16;;;;;;;1.98;0.63;;;;;;;16.75;97.09;98260.84;5093304;28;20044;-44
2022/07/21 00:13:42;;;;;;;1.30;0.40;;;;;;;16.58;97.12;98235.97;5099418;28;20050;-43
2022/07/21 00:16:08;;;;;;;1.17;0.68;;;;;;;16.62;96.48;98233.94;5093192;28;20051;-46
2022/07/21 00:18:34;;;;;;;0.57;0.57;;;;;;;16.80;96.08;98256.06;5091333;28;20528;-44
2022/07/21 00:21:00;;;;;;;0.68;0.52;;;;;;;16.81;96.01;98260.34;5073121;28;20047;-42
2022/07/21 00:23:27;;;;;;;0.75;0.50;;;;;;;16.79;95.93;98268.38;5090718;28;20040;-43
2022/07/21 00:25:53;;;;;;;1.02;0.50;;;;;;;16.76;95.73;98267.75;5089683;28;20044;-42
2022/07/21 00:28:20;;;;;;;2.17;0.60;;;;;;;16.80;95.25;98266.56;5089749;28;20122;-43
2022/07/21 00:30:46;;;;;;;0.88;0.60;;;;;;;16.79;95.41;98257.88;5072968;28;20097;-44
2022/07/21 00:33:11;;;;;;;1.38;0.70;;;;;;;16.82;95.07;98259.38;5091851;28;20067;-44
2022/07/21 00:35:37;;;;;;;0.60;0.60;;;;;;;16.83;95.17;98261.06;5089852;28;20082;-47
2022/07/21 00:38:03;;;;;;;0.80;0.50;;;;;;;16.79;94.99;98255.22;5089214;28;20067;-42
2022/07/21 00:40:29;;;;;;;1.42;0.60;;;;;;;16.83;94.89;98261.06;5090375;28;20047;-42
2022/07/21 00:42:55;;;;;;;0.90;0.60;;;;;;;16.85;94.89;98264.41;5097780;28;20044;-43
2022/07/21 00:45:21;;;;;;;1.00;0.60;;;;;;;16.86;94.96;98266.03;5072697;28;20127;-42
2022/07/21 00:47:47;;;;;;;0.73;0.70;;;;;;;16.87;95.02;98267.72;5090566;28;20147;-44
2022/07/21 00:50:16;;;;;;;0.95;0.50;;;;;;;16.87;95.04;98268.53;5090128;28;20461;-42
2022/07/21 00:52:42;;;;;;;1.10;0.70;;;;;;;16.86;95.24;98266.03;5088843;28;20491;-43
2022/07/21 00:55:12;;;;;;;0.70;0.52;;;;;;;16.87;95.03;98273.78;5089913;28;20155;-44
2022/07/21 00:57:38;;;;;;;1.08;0.70;;;;;;;16.85;95.14;98265.22;5090526;28;20032;-42
2022/07/21 01:00:06;;;;;;;2.67;0.70;;;;;;;16.76;95.18;98254.63;5090403;28;20036;-42
2022/07/21 01:02:36;;;;;;;1.10;0.70;;;;;;;16.82;95.12;98259.38;5098971;28;20414;-43
2022/07/21 01:05:04;;;;;;;0.65;0.65;;;;;;;16.85;95.15;98267.03;5090484;28;20180;-42
2022/07/21 01:07:30;;;;;;;0.80;0.70;;;;;;;16.86;95.15;98268.66;5088495;28;20032;-43
2022/07/21 01:09:56;;;;;;;2.15;0.77;;;;;;;16.85;95.04;98265.22;5090091;28;20067;-43
2022/07/21 01:12:22;;;;;;;1.45;0.68;;;;;;;16.86;95.14;98263.41;5088226;28;20511;-44
2022/07/21 01:14:48;;;;;;;0.82;0.60;;;;;;;16.86;94.69;98256.38;5089960;28;20443;-43
2022/07/21 01:17:14;;;;;;;1.38;0.80;;;;;;;16.87;94.84;98255.44;5088724;28;20040;-43
2022/07/21 01:19:40;;;;;;;2.28;0.70;;;;;;;16.58;94.87;98206.28;5088310;28;20085;-43
2022/07/21 01:22:07;;;;;;;0.98;0.68;;;;;;;16.87;94.89;98251.97;5074542;28;20130;-43
2022/07/21 01:24:33;;;;;;;1.67;0.85;;;;;;;16.87;94.97;98247.53;5071948;28;20173;-43
2022/07/21 01:26:59;;;;;;;1.10;0.80;;;;;;;16.88;94.99;98253.63;5093540;28;20039;-44
2022/07/21 01:29:25;;;;;;;2.25;0.88;;;;;;;16.88;94.82;98256.25;5093595;28;20393;-43
2022/07/21 01:31:51;;;;;;;1.10;0.80;;;;;;;16.77;95.20;98241.41;5087922;28;20036;-46
2022/07/21 01:34:20;;;;;;;1.98;1.48;;;;;;;16.75;95.02;98231.97;5071798;28;20047;-43
2022/07/21 01:36:46;;;;;;;3.10;1.10;;;;;;;16.89;94.98;98258.75;5089602;28;20071;-44
2022/07/21 01:41:58;;;;;;;5.72;1.00;;;;;;;16.55;94.64;98199.47;5078359;28;20035;-44
2022/07/21 01:44:24;;;;;;;2.47;0.90;;;;;;;16.79;94.76;98252.59;5071860;28;20102;-42
2022/07/21 01:46:52;;;;;;;2.05;1.00;;;;;;;16.77;95.42;98251.91;5089293;28;20040;-43
2022/07/21 01:49:20;;;;;;;1.77;0.90;;;;;;;16.75;95.77;98248.56;5089149;28;20044;-43
2022/07/21 01:51:46;;;;;;;1.88;1.00;;;;;;;16.56;95.83;98218.66;5089608;28;20039;-44
2022/07/21 01:54:14;;;;;;;2.05;1.00;;;;;;;16.73;96.36;98249.66;5089507;28;20044;-41
2022/07/21 01:56:40;;;;;;;1.25;0.98;;;;;;;16.82;96.24;98264.63;5070854;28;20041;-43
2022/07/21 01:59:06;;;;;;;2.95;1.23;;;;;;;16.81;96.24;98255.94;5089393;28;20032;-43
2022/07/21 02:01:33;;;;;;;1.25;1.00;;;;;;;16.76;96.49;98262.50;5089113;28;20466;-42
2022/07/21 02:04:01;;;;;;;1.80;1.00;;;;;;;16.76;97.23;98259.88;5091438;28;20038;-43
2022/07/21 02:06:28;;;;;;;1.65;1.15;;;;;;;16.79;97.12;98260.50;5093844;28;20046;-42
2022/07/21 02:08:54;;;;;;;1.42;0.93;;;;;;;16.82;97.12;98262.84;5087728;28;20048;-43
2022/07/21 02:11:20;;;;;;;1.45;0.80;;;;;;;16.85;96.72;98251.28;5089171;28;20036;-45
2022/07/21 02:13:47;;;;;;;7.15;5.00;;;;;;;16.72;96.51;98225.19;5092608;28;20422;-42
2022/07/21 02:16:13;;;;;;;2.95;1.05;;;;;;;16.93;96.38;98254.09;5087975;28;20427;-43
2022/07/21 02:18:39;;;;;;;3.90;1.15;;;;;;;16.96;96.01;98250.38;5088831;28;20131;-42
2022/07/21 02:21:05;;;;;;;1.67;1.08;;;;;;;16.98;95.76;98253.69;5089138;28;20636;-45
2022/07/21 02:23:32;;;;;;;2.75;1.02;;;;;;;17.00;95.57;98260.50;5090254;28;20028;-43
2022/07/21 02:25:58;;;;;;;1.65;0.88;;;;;;;16.85;95.24;98225.03;5088694;28;20533;-43
2022/07/21 02:28:25;;;;;;;1.17;0.80;;;;;;;16.99;95.36;98252.75;5090504;28;20035;-43
2022/07/21 02:30:51;;;;;;;1.80;0.95;;;;;;;17.00;94.99;98247.38;5087542;28;20709;-45
2022/07/21 02:33:17;;;;;;;1.95;1.10;;;;;;;17.00;94.68;98239.50;5090719;28;20040;-45
2022/07/21 02:35:43;;;;;;;3.00;0.93;;;;;;;17.02;94.79;98252.47;5089245;28;20531;-43
2022/07/21 02:38:09;;;;;;;0.90;0.75;;;;;;;17.00;94.54;98247.38;5087861;28;20581;-45
2022/07/21 02:40:35;;;;;;;3.03;1.20;;;;;;;17.05;94.26;98247.81;5088223;28;20063;-43
2022/07/21 02:43:01;;;;;;;1.88;1.00;;;;;;;16.81;94.19;98192.94;5095095;28;20113;-43
2022/07/21 02:45:27;;;;;;;1.00;0.90;;;;;;;17.10;94.39;98239.56;5102443;28;20074;-43
2022/07/21 02:47:53;;;;;;;1.10;0.80;;;;;;;17.11;94.18;98247.31;5088501;28;20149;-45
2022/07/21 02:50:19;;;;;;;2.08;1.10;;;;;;;17.12;93.96;98238.44;5088769;28;20655;-43
2022/07/21 02:52:45;;;;;;;1.85;0.98;;;;;;;17.14;94.08;98238.34;5083802;28;20419;-43
2022/07/21 02:55:12;;;;;;;1.40;1.10;;;;;;;17.13;94.47;98240.13;5087529;28;20048;-46
2022/07/21 02:57:37;;;;;;;2.95;1.13;;;;;;;16.99;94.58;98213.38;5081295;28;20147;-45
2022/07/21 03:00:05;;;;;;;1.48;1.20;;;;;;;17.00;95.11;98220.28;5087484;28;20473;-45
2022/07/21 03:02:31;;;;;;;1.65;1.15;;;;;;;17.15;94.92;98242.63;5096841;28;20036;-46
2022/07/21 03:04:57;;;;;;;1.50;1.00;;;;;;;17.12;95.28;98250.75;5097480;28;20131;-42
2022/07/21 03:07:23;;;;;;;1.60;1.08;;;;;;;17.12;95.62;98253.38;5088916;28;20122;-43
2022/07/21 03:09:49;;;;;;;2.42;1.10;;;;;;;17.12;95.55;98248.94;5088515;28;20048;-43
2022/07/21 03:12:14;;;;;;;6.32;1.10;;;;;;;17.13;95.42;98240.13;5088553;28;20039;-44
2022/07/21 03:14:40;;;;;;;4.43;1.08;;;;;;;16.89;95.68;98210.69;5087293;28;20097;-43
2022/07/21 03:17:06;;;;;;;2.55;1.10;;;;;;;17.03;97.04;98254.16;5090410;28;20048;-43
2022/07/21 03:19:32;;;;;;;2.03;1.20;;;;;;;16.96;98.43;98253.00;5091317;28;20043;-43
2022/07/21 03:21:57;;;;;;;1.27;1.00;;;;;;;16.87;99.72;98244.09;5094946;28;20071;-43
2022/07/21 03:24:23;;;;;;;1.88;1.15;;;;;;;16.93;100.00;98243.59;5112861;28;20046;-44
2022/07/21 03:26:49;;;;;;;3.10;2.25;;;;;;;16.70;100.00;98216.59;5079076;28;20085;-43
2022/07/21 03:29:15;;;;;;;1.42;1.30;;;;;;;16.91;100.00;98248.94;5091607;28;20040;-43
2022/07/21 03:31:41;;;;;;;2.80;1.40;;;;;;;16.86;100.00;98248.50;5090726;28;20458;-44
2022/07/21 03:34:07;;;;;;;1.92;1.23;;;;;;;16.81;100.00;98248.06;5090757;28;20040;-44
2022/07/21 03:36:32;;;;;;;2.00;1.30;;;;;;;16.80;100.00;98245.56;5091984;28;20039;-42
2022/07/21 03:38:59;;;;;;;3.70;2.50;;;;;;;16.79;100.00;98252.59;5090363;28;20483;-47
2022/07/21 03:41:25;;;;;;;1.58;1.27;;;;;;;16.80;100.00;98250.81;5092005;28;20154;-45
2022/07/21 03:43:51;;;;;;;2.10;1.30;;;;;;;16.79;100.00;98252.59;5093721;28;20032;-46
2022/07/21 03:46:17;;;;;;;3.90;2.35;;;;;;;16.80;100.00;98254.25;5099301;28;20044;-45
2022/07/21 03:48:43;;;;;;;2.38;1.40;;;;;;;16.81;100.00;98247.22;5091685;28;20044;-43
2022/07/21 03:51:09;;;;;;;1.60;1.40;;;;;;;16.84;100.00;98239.94;5089896;28;20080;-44
2022/07/21 03:53:35;;;;;;;2.03;1.52;;;;;;;16.86;100.00;98245.03;5091680;28;20082;-46
2022/07/21 03:56:01;;;;;;;2.00;1.73;;;;;;;16.88;100.00;98243.13;5103666;28;20032;-49
2022/07/21 03:58:27;;;;;;;1.65;1.40;;;;;;;16.85;100.00;98233.69;5091608;28;20040;-45
2022/07/21 04:00:53;;;;;;;2.40;1.70;;;;;;;16.74;100.00;98207.53;5073063;28;20036;-45
2022/07/21 04:03:19;;;;;;;2.67;2.00;;;;;;;16.76;100.00;98210.03;5091726;28;20108;-45
2022/07/21 04:05:45;;;;;;;3.03;2.15;;;;;;;16.96;100.00;98242.50;5091573;28;20530;-45
2022/07/21 04:08:13;;;;;;;3.85;2.10;;;;;;;16.83;100.00;98213.81;5090702;28;20051;-44
2022/07/21 04:10:41;;;;;;;3.47;2.22;;;;;;;17.03;100.00;98252.34;5087895;28;20047;-44
2022/07/21 04:13:09;;;;;;;3.30;2.30;;;;;;;17.03;100.00;98247.09;5091432;28;20040;-48
2022/07/21 04:15:36;;;;;;;4.77;1.90;;;;;;;17.07;100.00;98248.50;5091326;28;20078;-45
2022/07/21 04:18:02;;;;;;;4.13;2.78;;;;;;;17.10;100.00;98260.56;5089684;28;20097;-44
2022/07/21 04:20:29;;;;;;;4.35;2.65;;;;;;;16.82;100.00;98214.75;5077084;28;20040;-45
2022/07/21 04:22:57;;;;;;;4.38;2.20;;;;;;;16.98;100.00;98240.56;5090840;28;20538;-42
2022/07/21 04:25:23;;;;;;;3.55;2.20;;;;;;;16.86;100.00;98224.88;5105461;28;20035;-44
2022/07/21 04:27:49;;;;;;;2.55;2.15;;;;;;;17.15;100.00;98263.63;5090569;28;20085;-43
2022/07/21 04:30:18;;;;;;;4.43;2.45;;;;;;;17.20;100.00;98271.97;5090521;28;20040;-43
2022/07/21 04:32:44;;;;;;;3.83;2.17;;;;;;;17.07;100.00;98235.38;5089597;28;20044;-44
2022/07/21 04:35:10;;;;;;;5.18;2.72;;;;;;;17.11;100.00;98234.19;5091094;28;20480;-45
2022/07/21 04:37:36;;;;;;;4.70;2.80;;;;;;;17.29;100.00;98258.06;5090598;28;20781;-46
2022/07/21 04:40:04;;;;;;;4.60;2.20;;;;;;;17.32;100.00;98258.59;5092299;28;20081;-44
2022/07/21 04:42:30;;;;;;;4.65;2.53;;;;;;;17.35;100.00;98258.38;5090964;28;20086;-43
2022/07/21 04:44:56;;;;;;;2.92;1.88;;;;;;;17.23;100.00;98240.19;5089751;28;20127;-43
2022/07/21 04:47:22;;;;;;;5.97;2.63;;;;;;;17.22;100.00;98236.72;5091076;28;20540;-44
2022/07/21 04:49:47;;;;;;;6.22;2.03;;;;;;;17.39;100.00;98251.06;5107140;28;20051;-43
2022/07/21 04:52:13;;;;;;;2.40;1.75;;;;;;;17.45;100.00;98250.53;5111126;28;20031;-43
2022/07/21 04:54:39;;;;;;;5.75;1.98;;;;;;;17.32;100.00;98221.03;5091451;28;20036;-43
2022/07/21 04:57:05;;;;;;;2.85;1.90;;;;;;;17.60;100.00;98266.81;5088150;28;20150;-44
2022/07/21 04:59:32;;;;;;;3.65;2.00;;;;;;;17.46;99.82;98232.97;5088211;28;20059;-43
2022/07/21 05:01:59;;;;;;;2.75;1.92;;;;;;;17.74;99.47;98256.78;5088874;28;20040;-45
2022/07/21 05:04:25;;;;;;;2.70;1.92;;;;;;;17.85;98.70;98252.41;5088834;28;20102;-42
2022/07/21 05:06:51;;;;;;;2.72;1.88;;;;;;;17.94;98.11;98255.06;5090376;28;20046;-45
2022/07/21 05:09:17;;;;;;;3.45;1.88;;;;;;;18.07;97.39;98247.75;5086795;28;20541;-45
2022/07/21 05:11:43;;;;;;;3.38;1.85;;;;;;;18.25;96.46;98245.31;5088600;28;20126;-45
2022/07/21 05:14:09;;;;;;;3.60;2.50;;;;;;;18.46;95.04;98245.22;5092995;28;20153;-44
2022/07/21 05:16:35;;;;;;;3.75;1.60;;;;;;;18.66;93.89;98249.53;5089765;28;20035;-45
2022/07/21 05:19:00;;;;;;;2.03;1.77;;;;;;;18.88;92.19;98258.97;5071722;28;20507;-45
2022/07/21 05:21:26;;;;;;;4.15;1.85;;;;;;;19.13;90.33;98257.56;5089825;28;20043;-46
2022/07/21 05:23:52;;;;;;;5.22;2.78;;;;;;;19.33;88.65;98243.34;5090195;28;20040;-44
2022/07/21 05:26:18;;;;;;;2.50;2.30;;;;;;;19.55;86.89;98250.13;5088070;28;20044;-44
2022/07/21 05:28:44;;;;;;;5.35;1.80;;;;;;;19.69;84.70;98236.47;5078673;28;20047;-47
2022/07/21 05:31:10;;;;;;;4.72;1.83;;;;;;;19.98;82.81;98233.72;5094044;28;20047;-45
2022/07/21 05:33:36;;;;;;;2.45;1.80;;;;;;;20.33;81.28;98265.47;5092616;28;20118;-45
2022/07/21 05:36:03;;;;;;;5.43;1.90;;;;;;;20.62;79.92;98262.66;5089632;28;20097;-43
2022/07/21 05:38:29;;;;;;;2.85;1.80;;;;;;;20.83;77.96;98257.88;5092930;28;20150;-42
2022/07/21 05:40:55;;;;;;;2.95;1.25;;;;;;;20.86;76.34;98231.16;5100133;28;20563;-45
2022/07/21 05:43:21;;;;;;;2.03;1.80;;;;;;;21.16;74.88;98263.47;5071343;28;20511;-43
2022/07/21 05:45:47;;;;;;;3.78;1.60;;;;;;;21.18;73.92;98258.84;5089698;28;20055;-42
2022/07/21 05:48:14;;;;;;;2.75;1.83;;;;;;;21.19;73.52;98266.66;5071489;28;20089;-42
2022/07/21 05:50:40;;;;;;;1.80;1.42;;;;;;;21.18;73.17;98272.06;5088080;28;20407;-43
2022/07/21 05:53:05;;;;;;;3.53;1.70;;;;;;;21.13;72.83;98270.69;5088180;28;20055;-43
2022/07/21 05:55:31;;;;;;;3.03;1.30;;;;;;;21.09;72.45;98274.59;5089585;28;20437;-44
2022/07/21 05:57:57;;;;;;;1.80;1.52;;;;;;;21.08;71.92;98278.25;5088663;28;20039;-42
2022/07/21 06:00:23;;;;;;;2.75;1.25;;;;;;;21.07;71.36;98266.03;5095006;28;20058;-42
2022/07/21 06:02:50;;;;;;;3.17;1.33;;;;;;;20.85;70.48;98242.72;5090552;28;20050;-42
2022/07/21 06:05:16;;;;;;;2.33;1.38;;;;;;;20.92;70.16;98275.47;5087996;28;20044;-43
2022/07/21 06:07:42;;;;;;;2.30;1.20;;;;;;;20.76;70.37;98279.78;5087669;28;20047;-43
2022/07/21 06:10:08;;;;;;;2.50;1.42;;;;;;;20.57;70.68;98278.09;5087621;28;20052;-43
2022/07/21 06:12:36;;;;;;;1.42;1.10;;;;;;;20.53;70.53;98277.56;5087908;28;20067;-42
2022/07/21 06:15:03;;;;;;;3.20;1.20;;;;;;;20.66;70.12;98280.69;5104225;28;20545;-44
2022/07/21 06:17:32;;;;;;;2.38;1.30;;;;;;;20.92;69.20;98279.94;5054770;28;20036;-42
2022/07/21 06:19:59;;;;;;;1.55;1.30;;;;;;;21.28;68.19;98286.84;5087858;28;20097;-43
2022/07/21 06:22:25;;;;;;;3.65;1.25;;;;;;;21.46;67.14;98295.56;5087945;28;20040;-44
2022/07/21 06:24:52;;;;;;;5.03;1.98;;;;;;;21.56;66.10;98295.50;5089151;28;20044;-47
2022/07/21 06:27:18;;;;;;;1.73;1.35;;;;;;;21.57;65.31;98289.19;5089054;28;20470;-45
2022/07/21 06:29:43;;;;;;;2.67;1.70;;;;;;;21.68;64.86;98296.03;5101036;28;20036;-46
2022/07/21 06:32:09;;;;;;;1.38;1.27;;;;;;;21.78;63.92;98291.47;5088074;28;20040;-46
2022/07/21 06:34:35;;;;;;;2.13;1.23;;;;;;;21.92;63.10;98298.84;5088650;28;20127;-45
2022/07/21 06:37:00;;;;;;;1.42;1.15;;;;;;;21.96;62.99;98301.03;5094599;28;20043;-43
2022/07/21 06:39:26;;;;;;;3.40;1.20;;;;;;;21.92;63.25;98298.84;5104045;28;20462;-44
2022/07/21 06:41:52;;;;;;;3.78;1.25;;;;;;;21.91;63.16;98305.94;5087369;28;20424;-46
2022/07/21 06:44:18;;;;;;;2.42;1.10;;;;;;;21.96;62.65;98311.63;5086650;28;20042;-47
2022/07/21 06:46:43;;;;;;;3.92;1.60;;;;;;;21.90;62.86;98306.91;5089112;28;20092;-44
2022/07/21 06:49:09;;;;;;;4.82;1.30;;;;;;;21.78;62.88;98313.47;5088183;28;20158;-47
2022/07/21 06:51:35;;;;;;;2.67;1.13;;;;;;;21.74;63.33;98314.75;5087454;28;20096;-46
2022/07/21 06:54:01;;;;;;;2.20;1.65;;;;;;;21.85;63.24;98318.97;5091826;28;20074;-44
2022/07/21 06:56:27;;;;;;;2.85;1.35;;;;;;;21.65;63.19;98296.34;5104130;28;20122;-46
2022/07/21 06:58:54;;;;;;;1.88;1.55;;;;;;;21.24;63.66;98269.66;5091121;28;20039;-43
2022/07/21 07:01:20;;;;;;;3.38;1.50;;;;;;;21.24;64.25;98295.25;5091871;28;20431;-43
2022/07/21 07:03:46;;;;;;;1.70;1.27;;;;;;;21.45;63.57;98333.59;5090309;28;20036;-43
2022/07/21 07:06:12;;;;;;;1.92;1.10;;;;;;;21.40;62.85;98306.78;5090483;28;20048;-43
2022/07/21 07:08:39;;;;;;;1.58;1.10;;;;;;;21.74;62.44;98330.63;5091546;28;20163;-45
2022/07/21 07:11:05;;;;;;;2.10;1.10;;;;;;;22.03;61.60;98334.81;5074292;28;20047;-45
2022/07/21 07:13:31;;;;;;;2.97;1.10;;;;;;;22.17;61.13;98328.91;5091031;28;20035;-44
2022/07/21 07:15:57;;;;;;;1.30;1.20;;;;;;;22.12;60.39;98315.31;5091083;28;20400;-44
2022/07/21 07:18:23;;;;;;;1.55;1.10;;;;;;;22.32;60.14;98346.69;5091732;28;20036;-41
2022/07/21 07:20:51;;;;;;;4.18;1.50;;;;;;;22.18;60.13;98318.19;5092046;28;20529;-45
2022/07/21 07:23:17;;;;;;;1.00;0.80;;;;;;;22.15;59.94;98329.06;5091816;28;20044;-43
2022/07/21 07:25:43;;;;;;;0.98;0.88;;;;;;;22.19;59.84;98351.59;5073507;28;20431;-42
2022/07/21 07:28:09;;;;;;;3.08;1.00;;;;;;;22.08;59.85;98351.06;5092113;28;20032;-42
2022/07/21 07:30:35;;;;;;;3.22;1.08;;;;;;;21.80;59.97;98327.38;5088771;28;20410;-43
2022/07/21 07:33:01;;;;;;;4.35;1.92;;;;;;;21.90;60.44;98365.13;5090883;28;20138;-41
2022/07/21 07:35:27;;;;;;;1.95;1.10;;;;;;;21.77;61.04;98367.34;5091510;28;20177;-40
2022/07/21 07:37:53;;;;;;;2.53;1.30;;;;;;;21.39;62.21;98346.59;5092696;28;20423;-44
2022/07/21 07:40:21;;;;;;;1.60;1.00;;;;;;;21.32;63.27;98382.53;5091421;28;20113;-46
2022/07/21 07:42:46;;;;;;;1.73;1.30;;;;;;;21.22;63.53;98387.09;5074906;28;20044;-44
2022/07/21 07:45:13;;;;;;;24.02;4.45;;;;;;;21.16;63.89;98382.41;5088498;28;20040;-45
2022/07/21 07:47:39;;;;;;;3.33;1.40;;;;;;;20.94;64.55;98368.59;5091073;28;20143;-48
2022/07/21 07:50:08;;;;;;;11.50;2.42;;;;;;;21.35;64.43;98393.66;5089991;28;20079;-48
2022/07/21 07:52:35;;;;;;;2.47;1.30;;;;;;;21.56;63.79;98390.72;5091854;28;20040;-46
2022/07/21 07:55:04;;;;;;;4.03;1.40;;;;;;;21.42;63.78;98376.19;5090286;28;20454;-47
2022/07/21 07:57:30;;;;;;;3.90;1.30;;;;;;;21.49;64.07;98401.06;5085913;28;20051;-49
2022/07/21 07:59:56;;;;;;;6.90;2.80;;;;;;;21.53;63.98;98410.34;5091804;28;20036;-53
2022/07/21 08:02:22;;;;;;;4.50;1.63;;;;;;;21.51;64.25;98411.50;5090505;28;20048;-44
2022/07/21 08:04:47;;;;;;;3.83;1.63;;;;;;;21.40;64.51;98409.06;5091305;28;20097;-47
2022/07/21 08:07:13;;;;;;;4.43;1.98;;;;;;;21.22;65.12;98421.44;5091382;28;20250;-47
2022/07/21 08:09:40;;;;;;;1.80;1.40;;;;;;;21.00;66.18;98422.66;5089628;28;20090;-45
2022/07/21 08:12:06;;;;;;;3.08;1.40;;;;;;;20.71;67.85;98434.25;5094149;28;20035;-47
2022/07/21 08:14:32;;;;;;;6.07;2.75;;;;;;;20.46;69.96;98434.94;5096034;28;20062;-44
2022/07/21 08:16:58;;;;;;;8.52;3.38;;;;;;;20.23;73.56;98436.22;5090960;28;20506;-45
2022/07/21 08:19:25;;;;;;;3.40;1.50;;;;;;;20.15;75.04;98442.19;5094675;28;20043;-46
2022/07/21 08:21:51;;;;;;;4.50;2.20;;;;;;;20.10;75.73;98439.16;5090363;28;20036;-49
2022/07/21 08:24:17;;;;;;;4.93;2.75;;;;;;;20.07;77.00;98441.25;5089500;28;20040;-44
2022/07/21 08:26:44;;;;;;;5.18;2.00;;;;;;;20.13;77.69;98445.97;5093018;28;20047;-45
2022/07/21 08:29:10;;;;;;;10.60;6.20;;;;;;;20.35;78.08;98445.66;5111413;28;20046;-46
2022/07/21 08:31:37;;;;;;;6.32;3.15;;;;;;;21.08;77.35;98443.91;5089644;28;21316;-44
2022/07/21 08:34:02;;;;;;;4.68;2.40;;;;;;;21.85;74.84;98451.25;5090564;28;20042;-44
2022/07/21 08:36:28;;;;;;;4.32;2.40;;;;;;;22.99;71.80;98460.72;5090640;28;20127;-45
2022/07/21 08:38:54;;;;;;;6.35;3.75;;;;;;;25.75;64.29;98461.88;5090587;28;20036;-45
2022/07/21 08:41:20;;;;;;;3.55;1.80;;;;;;;27.11;57.39;98471.31;5090364;28;20130;-45
2022/07/21 08:43:47;;;;;;;3.03;1.60;;;;;;;28.12;53.08;98475.66;5087452;28;20093;-47
2022/07/21 08:46:15;;;;;;;7.65;2.35;;;;;;;27.20;53.19;98470.22;5111326;28;20121;-46
2022/07/21 08:48:41;;;;;;;1.80;1.70;;;;;;;26.17;53.97;98475.47;5095373;28;20121;-46
2022/07/21 08:51:07;;;;;;;2.47;1.90;;;;;;;25.74;54.54;98457.56;5088282;28;20065;-47
2022/07/21 08:53:36;;;;;;;4.03;2.72;;;;;;;27.30;51.70;98488.59;5092203;28;20058;-46
2022/07/21 08:56:02;;;;;;;5.55;2.08;;;;;;;28.91;48.27;98469.00;5089253;28;20499;-48
2022/07/21 08:58:29;;;;;;;2.55;1.77;;;;;;;30.77;44.18;98474.41;5102730;28;20853;-45
2022/07/21 09:00:54;;;;;;;3.05;1.75;;;;;;;32.38;41.08;98491.91;5102233;28;20039;-49
2022/07/21 09:03:23;;;;;;;2.47;1.60;;;;;;;33.43;38.81;98492.63;5088888;28;20519;-48
2022/07/21 09:06:04;;;;;;;;;;;;;;;34.80;36.55;98507.72;5090889;28;20039;-50
2022/07/21 09:08:32;;;;;;;2.72;1.63;;;;;;;35.78;34.79;98504.84;5090386;28;19924;-48
2022/07/21 09:11:13;;;;;;;1.98;1.70;;;;;;;36.58;31.97;98509.97;5089157;28;20291;-45
2022/07/21 09:13:40;;;;;;;2.47;2.17;;;;;;;36.74;31.66;98508.34;5100819;28;20039;-43
2022/07/21 09:16:06;;;;;;;4.32;2.05;;;;;;;37.25;30.76;98509.84;5110615;28;20073;-46
2022/07/21 09:18:32;;;;;;;8.68;1.70;;;;;;;37.94;29.00;98507.34;5096947;28;20077;-46
2022/07/21 09:21:00;;;;;;;4.03;3.65;;;;;;;38.58;27.53;98516.28;5086228;28;20040;-45
2022/07/21 09:23:26;;;;;;;2.42;2.22;;;;;;;38.99;26.54;98509.25;5085905;28;20047;-47
2022/07/21 09:25:54;;;;;;;2.67;2.40;;;;;;;39.19;25.83;98512.03;5088618;28;20047;-49
2022/07/21 09:28:26;;;;;;;2.40;2.20;;;;;;;39.32;25.84;98519.69;5100911;28;20031;-49
2022/07/21 09:31:08;;;;;;;3.80;2.83;;;;;;;38.08;26.59;98514.00;5110414;28;20042;-47
2022/07/21 09:33:40;;;;;;;2.40;2.20;;;;;;;36.78;27.69;98526.56;5092838;28;20042;-48
2022/07/21 09:36:08;;;;;;;1.45;1.33;;;;;;;36.50;28.28;98519.34;5089013;28;20415;-45
2022/07/21 09:38:41;;;;;;;2.13;1.50;;;;;;;35.52;29.35;98522.47;5090031;28;20533;-44
2022/07/21 09:41:11;;;;;;;1.38;1.20;;;;;;;34.24;30.71;98525.28;5089428;28;20218;-51
2022/07/21 09:43:51;;;;;;;1.80;1.27;;;;;;;32.52;33.05;98503.38;5090266;28;20044;-45
2022/07/21 09:46:19;;;;;;;3.15;1.90;;;;;;;34.22;31.57;98519.31;5085365;28;20036;-46
2022/07/21 09:48:46;;;;;;;;;;;;;;;36.04;29.24;98530.47;5090691;28;20097;-46
2022/07/21 09:51:40;;;;;;;1.98;1.80;;;;;;;37.41;27.10;98533.34;5069595;28;20390;-49
2022/07/21 09:54:09;;;;;;;2.17;1.38;;;;;;;37.57;26.59;98534.38;5069247;28;20138;-47
2022/07/21 09:56:39;;;;;;;1.70;1.60;;;;;;;38.12;25.57;98525.97;5086858;28;20039;-48
2022/07/21 09:59:07;;;;;;;2.22;2.03;;;;;;;39.06;24.68;98542.41;5104555;28;20044;-44
2022/07/21 10:01:35;;;;;;;2.20;2.00;;;;;;;39.85;23.79;98542.19;5108527;28;20529;-47
2022/07/21 10:04:02;;;;;;;3.65;3.28;;;;;;;39.06;24.16;98522.56;5098620;28;20515;-46
2022/07/21 10:06:30;;;;;;;;;;;;;;;37.40;25.76;98536.31;5087871;28;20039;-44
2022/07/21 10:08:57;;;;;;;5.80;1.30;;;;;;;35.70;27.34;98555.84;5087167;28;19931;-49
2022/07/21 10:11:23;;;;;;;2.10;2.00;;;;;;;35.32;28.70;98553.69;5087610;28;20040;-46
2022/07/21 10:13:50;;;;;;;1.65;1.55;;;;;;;36.30;27.34;98537.16;5087776;28;20066;-46
2022/07/21 10:16:16;;;;;;;3.63;2.17;;;;;;;37.07;26.08;98534.50;5089536;28;20063;-46
2022/07/21 10:18:54;;;;;;;5.82;3.20;;;;;;;38.71;24.76;98558.50;5070774;28;20416;-47
2022/07/21 10:21:36;;;;;;;1.77;1.67;;;;;;;38.44;23.96;98540.34;5089337;28;20039;-48
2022/07/21 10:24:02;;;;;;;3.55;2.50;;;;;;;39.20;23.14;98568.06;5070614;28;20389;-47
2022/07/21 10:26:29;;;;;;;2.28;1.80;;;;;;;40.15;22.22;98568.63;5073914;28;20048;-49
2022/07/21 10:28:54;;;;;;;2.10;2.00;;;;;;;41.10;21.25;98566.16;5093141;28;20404;-47
2022/07/21 10:31:23;;;;;;;1.88;1.77;;;;;;;41.67;20.45;98560.19;5092934;28;20048;-46
2022/07/21 10:33:48;;;;;;;3.70;2.08;;;;;;;40.54;21.25;98561.59;5089558;28;20055;-51
2022/07/21 10:36:26;;;;;;;5.78;3.65;;;;;;;41.13;21.13;98568.34;5092598;28;20454;-48
2022/07/21 10:39:23;;;;;;;5.97;3.15;;;;;;;42.12;20.20;98568.13;5092344;28;20098;-46
2022/07/21 10:41:52;;;;;;;1.67;1.58;;;;;;;40.59;20.86;98561.56;5068643;28;20134;-49
2022/07/21 10:44:27;;;;;;;2.97;2.60;;;;;;;40.99;21.19;98571.59;5087356;28;20043;-45
2022/07/21 10:47:12;;;;;;;4.13;2.42;;;;;;;42.15;19.83;98572.19;5092663;28;20534;-46
2022/07/21 10:49:54;;;;;;;2.20;2.10;;;;;;;42.74;18.62;98572.00;5089403;28;20035;-45
2022/07/21 10:52:36;;;;;;;2.15;1.20;;;;;;;40.33;20.36;98562.69;5092084;28;20043;-48
2022/07/21 10:55:28;;;;;;;2.55;1.50;;;;;;;38.77;22.05;98565.63;5106792;28;20101;-47
2022/07/21 10:58:16;;;;;;;3.03;1.80;;;;;;;37.24;23.97;98574.09;5102667;28;20123;-45
2022/07/21 11:00:50;;;;;;;7.75;1.58;;;;;;;35.32;25.89;98572.63;5091346;28;20575;-49
2022/07/21 11:03:31;;;;;;;4.88;1.80;;;;;;;33.62;28.61;98586.72;5088423;28;20050;-44
2022/07/21 11:06:05;;;;;;;4.88;1.95;;;;;;;32.23;30.27;98572.97;5090981;28;20068;-44
2022/07/21 11:08:36;;;;;;;4.85;2.92;;;;;;;31.24;31.62;98577.16;5093216;28;20620;-47
2022/07/21 11:11:20;;;;;;;5.53;2.30;;;;;;;30.48;32.66;98574.97;5110755;28;20043;-47
2022/07/21 11:14:11;;;;;;;2.70;1.73;;;;;;;30.04;33.43;98578.22;5088319;28;20480;-47
2022/07/21 11:16:40;;;;;;;5.20;1.40;;;;;;;29.75;34.00;98584.69;5091411;28;20130;-45
2022/07/21 11:19:06;;;;;;;;;;;;;;;29.50;34.28;98577.41;5091778;28;20036;-45
2022/07/21 11:21:31;;;;;;;3.80;2.90;;;;;;;28.90;36.02;98597.63;5091868;28;19922;-46
2022/07/21 11:23:57;;;;;;;5.13;1.85;;;;;;;28.19;37.71;98604.84;5073983;28;20540;-44
2022/07/21 11:26:25;;;;;;;11.02;1.60;;;;;;;27.82;38.89;98605.88;5092006;28;20040;-45
2022/07/21 11:29:07;;;;;;;6.38;1.80;;;;;;;27.82;39.28;98603.22;5092027;28;20039;-49
2022/07/21 11:31:45;;;;;;;9.15;2.13;;;;;;;28.15;39.67;98612.44;5087801;28;20044;-45
2022/07/21 11:34:12;;;;;;;8.82;2.72;;;;;;;29.57;37.49;98608.56;5075510;28;20132;-45
2022/07/21 11:36:38;;;;;;;4.65;1.73;;;;;;;29.74;37.51;98620.56;5089784;28;20080;-45
2022/07/21 11:39:09;;;;;;;3.95;1.95;;;;;;;30.52;36.88;98612.94;5092553;28;20136;-45